sensor_id;sensor_type;location;lat;lon;timestamp;pressure;altitude;pressure_sealevel;temperature;humidity
59104;BME280;51449;51.676;5.812;2022-11-20T00:00:38;101307.81;;;-0.65;68.12
59104;BME280;51449;51.676;5.812;2022-11-20T00:02:59;101302.63;;;-0.66;68.59
59104;BME280;51449;51.676;5.812;2022-11-20T00:05:21;101302.91;;;-0.68;68.07
59104;BME280;51449;51.676;5.812;2022-11-20T00:07:43;101300.94;;;-0.72;68.15
59104;BME280;51449;51.676;5.812;2022-11-20T00:10:05;101304.38;;;-0.77;68.42
59104;BME280;51449;51.676;5.812;2022-11-20T00:12:27;101293.22;;;-0.80;68.41
59104;BME280;51449;51.676;5.812;2022-11-20T00:14:49;101290.41;;;-0.86;68.53
59104;BME280;51449;51.676;5.812;2022-11-20T00:17:11;101289.75;;;-0.93;68.36
59104;BME280;51449;51.676;5.812;2022-11-20T00:19:33;101289.69;;;-0.98;68.46
59104;BME280;51449;51.676;5.812;2022-11-20T00:21:54;101276.66;;;-1.01;68.94
59104;BME280;51449;51.676;5.812;2022-11-20T00:24:16;101280.91;;;-1.05;68.86
59104;BME280;51449;51.676;5.812;2022-11-20T00:26:38;101272.97;;;-1.12;68.72
59104;BME280;51449;51.676;5.812;2022-11-20T00:29:01;101280.28;;;-1.12;68.73
59104;BME280;51449;51.676;5.812;2022-11-20T00:31:23;101279.13;;;-1.16;68.99
59104;BME280;51449;51.676;5.812;2022-11-20T00:33:46;101290.25;;;-1.13;69.20
59104;BME280;51449;51.676;5.812;2022-11-20T00:36:17;101284.03;;;-1.13;69.29
59104;BME280;51449;51.676;5.812;2022-11-20T00:38:43;101282.97;;;-1.12;69.08
59104;BME280;51449;51.676;5.812;2022-11-20T00:41:09;101274.88;;;-1.12;69.27
59104;BME280;51449;51.676;5.812;2022-11-20T00:43:32;101270.00;;;-1.10;69.47
59104;BME280;51449;51.676;5.812;2022-11-20T00:46:01;101266.25;;;-1.09;69.23
59104;BME280;51449;51.676;5.812;2022-11-20T00:48:26;101271.31;;;-1.13;69.28
59104;BME280;51449;51.676;5.812;2022-11-20T00:50:49;101278.63;;;-1.13;69.24
59104;BME280;51449;51.676;5.812;2022-11-20T00:53:11;101275.91;;;-1.13;69.52
59104;BME280;51449;51.676;5.812;2022-11-20T00:55:32;101270.50;;;-1.13;69.63
59104;BME280;51449;51.676;5.812;2022-11-20T00:57:54;101269.69;;;-1.14;69.22
59104;BME280;51449;51.676;5.812;2022-11-20T01:00:16;101263.22;;;-1.13;69.30
59104;BME280;51449;51.676;5.812;2022-11-20T01:02:38;101254.88;;;-1.11;69.54
59104;BME280;51449;51.676;5.812;2022-11-20T01:05:00;101261.91;;;-1.10;69.54
59104;BME280;51449;51.676;5.812;2022-11-20T01:07:22;101264.88;;;-1.12;69.73
59104;BME280;51449;51.676;5.812;2022-11-20T01:09:44;101264.88;;;-1.12;69.16
59104;BME280;51449;51.676;5.812;2022-11-20T01:12:06;101257.00;;;-1.13;69.42
59104;BME280;51449;51.676;5.812;2022-11-20T01:14:28;101246.09;;;-1.18;69.40
59104;BME280;51449;51.676;5.812;2022-11-20T01:16:51;101257.13;;;-1.20;69.57
59104;BME280;51449;51.676;5.812;2022-11-20T01:19:19;101257.13;;;-1.20;69.55
59104;BME280;51449;51.676;5.812;2022-11-20T01:21:44;101253.88;;;-1.22;69.55
59104;BME280;51449;51.676;5.812;2022-11-20T01:24:09;101250.03;;;-1.26;69.77
59104;BME280;51449;51.676;5.812;2022-11-20T01:26:35;101251.81;;;-1.32;69.72
59104;BME280;51449;51.676;5.812;2022-11-20T01:28:59;101247.59;;;-1.39;69.59
59104;BME280;51449;51.676;5.812;2022-11-20T01:31:40;101247.28;;;-1.43;69.92
59104;BME280;51449;51.676;5.812;2022-11-20T01:34:05;101255.91;;;-1.46;69.84
59104;BME280;51449;51.676;5.812;2022-11-20T01:36:30;101256.13;;;-1.47;69.85
59104;BME280;51449;51.676;5.812;2022-11-20T01:38:58;101247.78;;;-1.46;70.09
59104;BME280;51449;51.676;5.812;2022-11-20T01:41:22;101258.59;;;-1.46;70.12
59104;BME280;51449;51.676;5.812;2022-11-20T01:44:04;101259.06;;;-1.49;69.87
59104;BME280;51449;51.676;5.812;2022-11-20T01:46:27;101257.44;;;-1.50;69.79
59104;BME280;51449;51.676;5.812;2022-11-20T01:48:57;101256.63;;;-1.51;69.97
59104;BME280;51449;51.676;5.812;2022-11-20T01:51:29;101249.09;;;-1.48;70.08
59104;BME280;51449;51.676;5.812;2022-11-20T01:54:19;101255.91;;;-1.46;70.21
59104;BME280;51449;51.676;5.812;2022-11-20T01:56:48;101248.59;;;-1.45;70.17
59104;BME280;51449;51.676;5.812;2022-11-20T01:59:17;101242.38;;;-1.46;69.95
59104;BME280;51449;51.676;5.812;2022-11-20T02:01:41;101242.38;;;-1.46;70.05
59104;BME280;51449;51.676;5.812;2022-11-20T02:04:03;101244.50;;;-1.48;70.12
59104;BME280;51449;51.676;5.812;2022-11-20T02:06:49;101244.50;;;-1.48;70.21
59104;BME280;51449;51.676;5.812;2022-11-20T02:09:17;101238.28;;;-1.48;70.23
59104;BME280;51449;51.676;5.812;2022-11-20T02:11:39;101239.91;;;-1.47;70.13
59104;BME280;51449;51.676;5.812;2022-11-20T02:14:01;101248.25;;;-1.49;70.05
59104;BME280;51449;51.676;5.812;2022-11-20T02:16:29;101248.75;;;-1.52;70.17
59104;BME280;51449;51.676;5.812;2022-11-20T02:18:56;101240.53;;;-1.57;69.95
59104;BME280;51449;51.676;5.812;2022-11-20T02:24:05;101241.28;;;-1.62;70.23
59104;BME280;51449;51.676;5.812;2022-11-20T02:26:52;101239.28;;;-1.66;69.99
59104;BME280;51449;51.676;5.812;2022-11-20T02:29:23;101230.06;;;-1.70;70.23
59104;BME280;51449;51.676;5.812;2022-11-20T02:31:48;101232.63;;;-1.76;70.14
59104;BME280;51449;51.676;5.812;2022-11-20T02:34:10;101242.28;;;-1.80;70.27
59104;BME280;51449;51.676;5.812;2022-11-20T02:36:33;101232.53;;;-1.81;70.40
59104;BME280;51449;51.676;5.812;2022-11-20T02:38:57;101231.50;;;-1.80;70.42
59104;BME280;51449;51.676;5.812;2022-11-20T02:41:19;101230.41;;;-1.79;70.39
59104;BME280;51449;51.676;5.812;2022-11-20T02:43:41;101228.53;;;-1.78;70.39
59104;BME280;51449;51.676;5.812;2022-11-20T02:46:03;101229.59;;;-1.79;70.83
59104;BME280;51449;51.676;5.812;2022-11-20T02:48:24;101235.72;;;-1.84;70.93
59104;BME280;51449;51.676;5.812;2022-11-20T02:50:49;101233.75;;;-1.88;71.14
59104;BME280;51449;51.676;5.812;2022-11-20T02:53:11;101225.41;;;-1.87;70.97
59104;BME280;51449;51.676;5.812;2022-11-20T02:55:33;101236.22;;;-1.87;70.85
59104;BME280;51449;51.676;5.812;2022-11-20T02:57:55;101239.41;;;-1.90;71.14
59104;BME280;51449;51.676;5.812;2022-11-20T03:00:17;101247.50;;;-1.90;71.04
59104;BME280;51449;51.676;5.812;2022-11-20T03:02:39;101246.94;;;-1.92;70.94
59104;BME280;51449;51.676;5.812;2022-11-20T03:05:01;101250.44;;;-1.91;70.67
59104;BME280;51449;51.676;5.812;2022-11-20T03:07:24;101248.56;;;-1.91;70.38
59104;BME280;51449;51.676;5.812;2022-11-20T03:09:46;101249.63;;;-1.92;70.70
59104;BME280;51449;51.676;5.812;2022-11-20T03:12:08;101251.75;;;-1.94;70.76
59104;BME280;51449;51.676;5.812;2022-11-20T03:14:30;101247.41;;;-1.95;70.74
59104;BME280;51449;51.676;5.812;2022-11-20T03:16:52;101243.88;;;-1.96;70.92
59104;BME280;51449;51.676;5.812;2022-11-20T03:19:14;101246.34;;;-1.94;70.92
59104;BME280;51449;51.676;5.812;2022-11-20T03:21:35;101233.91;;;-1.95;70.87
59104;BME280;51449;51.676;5.812;2022-11-20T03:23:57;101227.66;;;-1.96;70.79
59104;BME280;51449;51.676;5.812;2022-11-20T03:26:22;101227.34;;;-1.99;70.76
59104;BME280;51449;51.676;5.812;2022-11-20T03:28:58;101229.22;;;-2.00;70.92
59104;BME280;51449;51.676;5.812;2022-11-20T03:31:33;101229.94;;;-2.04;70.73
59104;BME280;51449;51.676;5.812;2022-11-20T03:33:57;101229.34;;;-2.06;71.11
59104;BME280;51449;51.676;5.812;2022-11-20T03:36:21;101232.06;;;-2.06;70.90
59104;BME280;51449;51.676;5.812;2022-11-20T03:38:43;101226.88;;;-2.08;70.88
59104;BME280;51449;51.676;5.812;2022-11-20T03:41:10;101223.97;;;-2.06;70.91
59104;BME280;51449;51.676;5.812;2022-11-20T03:43:35;101220.91;;;-2.10;71.24
59104;BME280;51449;51.676;5.812;2022-11-20T03:45:57;101227.38;;;-2.11;70.94
59104;BME280;51449;51.676;5.812;2022-11-20T03:48:19;101228.44;;;-2.12;71.11
59104;BME280;51449;51.676;5.812;2022-11-20T03:50:41;101225.97;;;-2.13;71.19
59104;BME280;51449;51.676;5.812;2022-11-20T03:53:03;101210.84;;;-2.14;71.20
59104;BME280;51449;51.676;5.812;2022-11-20T03:55:25;101214.59;;;-2.16;70.91
59104;BME280;51449;51.676;5.812;2022-11-20T03:57:47;101215.66;;;-2.17;71.00
59104;BME280;51449;51.676;5.812;2022-11-20T04:00:09;101212.88;;;-2.22;71.00
59104;BME280;51449;51.676;5.812;2022-11-20T04:02:31;101204.75;;;-2.22;71.08
59104;BME280;51449;51.676;5.812;2022-11-20T04:04:53;101205.81;;;-2.23;71.15
59104;BME280;51449;51.676;5.812;2022-11-20T04:07:15;101205.81;;;-2.23;71.11
59104;BME280;51449;51.676;5.812;2022-11-20T04:09:37;101206.06;;;-2.24;71.16
59104;BME280;51449;51.676;5.812;2022-11-20T04:11:59;101197.03;;;-2.30;70.92
59104;BME280;51449;51.676;5.812;2022-11-20T04:14:21;101193.06;;;-2.39;70.93
59104;BME280;51449;51.676;5.812;2022-11-20T04:16:43;101184.84;;;-2.44;71.17
59104;BME280;51449;51.676;5.812;2022-11-20T04:19:10;101188.25;;;-2.49;71.18
59104;BME280;51449;51.676;5.812;2022-11-20T04:21:37;101186.75;;;-2.56;71.20
59104;BME280;51449;51.676;5.812;2022-11-20T04:23:59;101189.34;;;-2.62;71.04
59104;BME280;51449;51.676;5.812;2022-11-20T04:26:23;101181.25;;;-2.62;71.23
59104;BME280;51449;51.676;5.812;2022-11-20T04:28:47;101186.16;;;-2.59;71.25
59104;BME280;51449;51.676;5.812;2022-11-20T04:31:18;101185.63;;;-2.61;71.31
59104;BME280;51449;51.676;5.812;2022-11-20T04:33:42;101188.88;;;-2.59;71.61
59104;BME280;51449;51.676;5.812;2022-11-20T04:36:14;101195.09;;;-2.58;71.37
59104;BME280;51449;51.676;5.812;2022-11-20T04:38:39;101180.31;;;-2.55;71.66
59104;BME280;51449;51.676;5.812;2022-11-20T04:41:05;101178.78;;;-2.51;71.66
59104;BME280;51449;51.676;5.812;2022-11-20T04:43:28;101184.75;;;-2.49;71.67
59104;BME280;51449;51.676;5.812;2022-11-20T04:45:53;101178.06;;;-2.47;71.79
59104;BME280;51449;51.676;5.812;2022-11-20T04:48:16;101180.53;;;-2.45;71.40
59104;BME280;51449;51.676;5.812;2022-11-20T04:50:40;101179.22;;;-2.43;71.76
59104;BME280;51449;51.676;5.812;2022-11-20T04:53:02;101175.72;;;-2.43;71.99
59104;BME280;51449;51.676;5.812;2022-11-20T04:55:24;101183.56;;;-2.42;71.75
59104;BME280;51449;51.676;5.812;2022-11-20T04:57:50;101184.41;;;-2.41;71.84
59104;BME280;51449;51.676;5.812;2022-11-20T05:00:14;101171.94;;;-2.42;71.61
59104;BME280;51449;51.676;5.812;2022-11-20T05:02:37;101158.13;;;-2.46;71.81
59104;BME280;51449;51.676;5.812;2022-11-20T05:04:59;101160.03;;;-2.46;71.71
59104;BME280;51449;51.676;5.812;2022-11-20T05:07:25;101168.94;;;-2.46;71.72
59104;BME280;51449;51.676;5.812;2022-11-20T05:09:47;101164.34;;;-2.45;71.54
59104;BME280;51449;51.676;5.812;2022-11-20T05:12:10;101167.63;;;-2.43;71.89
59104;BME280;51449;51.676;5.812;2022-11-20T05:14:33;101167.97;;;-2.40;71.69
59104;BME280;51449;51.676;5.812;2022-11-20T05:16:59;101175.00;;;-2.39;71.46
59104;BME280;51449;51.676;5.812;2022-11-20T05:19:23;101171.72;;;-2.41;71.48
59104;BME280;51449;51.676;5.812;2022-11-20T05:21:54;101168.66;;;-2.44;71.68
59104;BME280;51449;51.676;5.812;2022-11-20T05:24:29;101166.81;;;-2.44;71.71
59104;BME280;51449;51.676;5.812;2022-11-20T05:27:02;101156.25;;;-2.45;71.87
59104;BME280;51449;51.676;5.812;2022-11-20T05:29:51;101148.16;;;-2.45;71.69
59104;BME280;51449;51.676;5.812;2022-11-20T05:32:21;101157.31;;;-2.46;71.88
59104;BME280;51449;51.676;5.812;2022-11-20T05:39:07;101153.34;;;-2.55;71.71
59104;BME280;51449;51.676;5.812;2022-11-20T05:41:39;101146.19;;;-2.62;71.94
59104;BME280;51449;51.676;5.812;2022-11-20T05:44:27;101150.09;;;-2.69;72.03
59104;BME280;51449;51.676;5.812;2022-11-20T05:52:18;101148.94;;;-2.85;71.83
59104;BME280;51449;51.676;5.812;2022-11-20T05:54:42;101148.94;;;-2.85;72.00
59104;BME280;51449;51.676;5.812;2022-11-20T05:57:07;101149.75;;;-2.85;71.70
59104;BME280;51449;51.676;5.812;2022-11-20T05:59:30;101154.34;;;-2.85;72.07
59104;BME280;51449;51.676;5.812;2022-11-20T06:01:53;101146.25;;;-2.85;71.59
59104;BME280;51449;51.676;5.812;2022-11-20T06:04:18;101155.16;;;-2.85;71.97
59104;BME280;51449;51.676;5.812;2022-11-20T06:06:44;101154.34;;;-2.85;71.92
59104;BME280;51449;51.676;5.812;2022-11-20T06:09:08;101164.53;;;-2.87;72.09
59104;BME280;51449;51.676;5.812;2022-11-20T06:11:34;101167.25;;;-2.87;71.83
59104;BME280;51449;51.676;5.812;2022-11-20T06:13:58;101166.66;;;-2.89;71.84
59104;BME280;51449;51.676;5.812;2022-11-20T06:16:23;101165.84;;;-2.90;71.89
59104;BME280;51449;51.676;5.812;2022-11-20T06:18:47;101169.94;;;-2.87;72.00
59104;BME280;51449;51.676;5.812;2022-11-20T06:24:20;101176.72;;;-2.85;72.38
59104;BME280;51449;51.676;5.812;2022-11-20T06:26:44;101177.06;;;-2.81;71.99
59104;BME280;51449;51.676;5.812;2022-11-20T06:29:08;101175.53;;;-2.77;72.06
59104;BME280;51449;51.676;5.812;2022-11-20T06:31:31;101165.56;;;-2.76;72.00
59104;BME280;51449;51.676;5.812;2022-11-20T06:34:01;101168.63;;;-2.73;72.14
59104;BME280;51449;51.676;5.812;2022-11-20T06:36:25;101171.06;;;-2.71;72.15
59104;BME280;51449;51.676;5.812;2022-11-20T06:38:49;101174.59;;;-2.71;72.18
59104;BME280;51449;51.676;5.812;2022-11-20T06:41:15;101177.75;;;-2.74;72.08
59104;BME280;51449;51.676;5.812;2022-11-20T06:43:40;101174.03;;;-2.73;71.90
59104;BME280;51449;51.676;5.812;2022-11-20T06:46:11;101168.16;;;-2.70;71.88
59104;BME280;51449;51.676;5.812;2022-11-20T06:52:22;101169.78;;;-2.69;72.12
59104;BME280;51449;51.676;5.812;2022-11-20T06:58:44;101161.69;;;-2.69;71.89
59104;BME280;51449;51.676;5.812;2022-11-20T07:01:13;101162.28;;;-2.67;71.82
59104;BME280;51449;51.676;5.812;2022-11-20T07:09:17;101169.19;;;-2.71;71.89
59104;BME280;51449;51.676;5.812;2022-11-20T07:11:40;101161.09;;;-2.71;71.85
59104;BME280;51449;51.676;5.812;2022-11-20T07:14:04;101164.97;;;-2.67;71.90
59104;BME280;51449;51.676;5.812;2022-11-20T07:16:35;101165.34;;;-2.63;72.29
59104;BME280;51449;51.676;5.812;2022-11-20T07:19:02;101163.56;;;-2.58;72.08
59104;BME280;51449;51.676;5.812;2022-11-20T07:21:29;101166.13;;;-2.51;72.12
59104;BME280;51449;51.676;5.812;2022-11-20T07:23:59;101169.75;;;-2.45;72.36
59104;BME280;51449;51.676;5.812;2022-11-20T07:26:26;101156.84;;;-2.43;72.48
59104;BME280;51449;51.676;5.812;2022-11-20T07:28:50;101162.56;;;-2.40;72.35
59104;BME280;51449;51.676;5.812;2022-11-20T07:31:15;101162.06;;;-2.37;72.64
59104;BME280;51449;51.676;5.812;2022-11-20T07:33:40;101163.50;;;-2.34;72.47
59104;BME280;51449;51.676;5.812;2022-11-20T08:32:09;101136.50;;;-0.87;73.58
59104;BME280;51449;51.676;5.812;2022-11-20T08:41:25;101134.13;;;-0.61;73.60
59104;BME280;51449;51.676;5.812;2022-11-20T08:44:09;101133.44;;;-0.52;73.58
59104;BME280;51449;51.676;5.812;2022-11-20T08:46:37;101128.41;;;-0.43;73.90
59104;BME280;51449;51.676;5.812;2022-11-20T08:49:05;101138.25;;;-0.32;73.68
59104;BME280;51449;51.676;5.812;2022-11-20T08:51:30;101136.75;;;-0.23;73.75
59104;BME280;51449;51.676;5.812;2022-11-20T08:53:53;101127.91;;;-0.13;73.61
59104;BME280;51449;51.676;5.812;2022-11-20T08:56:16;101139.94;;;-0.04;73.54
59104;BME280;51449;51.676;5.812;2022-11-20T08:58:39;101132.44;;;0.04;73.25
59104;BME280;51449;51.676;5.812;2022-11-20T09:01:23;101128.69;;;0.10;73.88
59104;BME280;51449;51.676;5.812;2022-11-20T09:03:45;101130.38;;;0.16;73.29
59104;BME280;51449;51.676;5.812;2022-11-20T09:06:08;101132.88;;;0.23;73.29
59104;BME280;51449;51.676;5.812;2022-11-20T09:08:34;101124.81;;;0.28;73.56
59104;BME280;51449;51.676;5.812;2022-11-20T09:10:58;101125.94;;;0.32;73.56
59104;BME280;51449;51.676;5.812;2022-11-20T09:13:22;101124.06;;;0.37;73.45
59104;BME280;51449;51.676;5.812;2022-11-20T09:15:45;101127.63;;;0.43;73.91
59104;BME280;51449;51.676;5.812;2022-11-20T09:18:07;101117.41;;;0.50;73.50
59104;BME280;51449;51.676;5.812;2022-11-20T09:20:30;101118.56;;;0.59;73.42
59104;BME280;51449;51.676;5.812;2022-11-20T09:22:53;101117.25;;;0.67;73.62
59104;BME280;51449;51.676;5.812;2022-11-20T09:25:15;101105.38;;;0.73;73.14
59104;BME280;51449;51.676;5.812;2022-11-20T09:27:37;101112.44;;;0.79;73.25
59104;BME280;51449;51.676;5.812;2022-11-20T09:29:59;101102.44;;;0.85;73.45
59104;BME280;51449;51.676;5.812;2022-11-20T09:32:21;101098.13;;;0.89;73.53
59104;BME280;51449;51.676;5.812;2022-11-20T09:34:43;101101.44;;;0.96;73.22
59104;BME280;51449;51.676;5.812;2022-11-20T09:37:04;101105.00;;;1.02;73.65
59104;BME280;51449;51.676;5.812;2022-11-20T09:39:28;101084.16;;;1.08;73.82
59104;BME280;51449;51.676;5.812;2022-11-20T09:42:09;101092.34;;;1.18;73.26
59104;BME280;51449;51.676;5.812;2022-11-20T09:48:04;101092.63;;;1.32;73.21
59104;BME280;51449;51.676;5.812;2022-11-20T09:50:45;101084.81;;;1.35;73.47
59104;BME280;51449;51.676;5.812;2022-11-20T09:55:56;101084.84;;;1.45;73.24
59104;BME280;51449;51.676;5.812;2022-11-20T09:58:32;101090.03;;;1.52;73.17
59104;BME280;51449;51.676;5.812;2022-11-20T10:01:10;101079.72;;;1.59;73.37
59104;BME280;51449;51.676;5.812;2022-11-20T10:03:56;101080.53;;;1.65;72.97
59104;BME280;51449;51.676;5.812;2022-11-20T10:20:10;101068.66;;;2.02;73.35
59104;BME280;51449;51.676;5.812;2022-11-20T10:25:25;101046.09;;;2.17;73.83
59104;BME280;51449;51.676;5.812;2022-11-20T10:31:04;101044.22;;;2.27;73.53
59104;BME280;51449;51.676;5.812;2022-11-20T10:33:40;101033.34;;;2.32;73.58
59104;BME280;51449;51.676;5.812;2022-11-20T10:36:35;101031.97;;;2.35;73.57
59104;BME280;51449;51.676;5.812;2022-11-20T10:39:18;101024.38;;;2.37;73.47
59104;BME280;51449;51.676;5.812;2022-11-20T10:41:56;101024.06;;;2.39;73.17
59104;BME280;51449;51.676;5.812;2022-11-20T10:44:26;101007.22;;;2.42;73.42
59104;BME280;51449;51.676;5.812;2022-11-20T10:47:17;100999.31;;;2.45;73.61
59104;BME280;51449;51.676;5.812;2022-11-20T10:49:39;100991.72;;;2.47;73.16
59104;BME280;51449;51.676;5.812;2022-11-20T10:54:49;100986.00;;;2.54;73.37
59104;BME280;51449;51.676;5.812;2022-11-20T11:02:55;100962.56;;;2.63;73.57
59104;BME280;51449;51.676;5.812;2022-11-20T11:05:36;100962.25;;;2.70;73.96
59104;BME280;51449;51.676;5.812;2022-11-20T11:07:59;100955.75;;;2.71;73.50
59104;BME280;51449;51.676;5.812;2022-11-20T11:10:24;100953.00;;;2.76;74.04
59104;BME280;51449;51.676;5.812;2022-11-20T11:29:22;100923.72;;;3.07;74.05
59104;BME280;51449;51.676;5.812;2022-11-20T11:31:45;100910.09;;;3.12;74.31
59104;BME280;51449;51.676;5.812;2022-11-20T11:34:17;100910.31;;;3.21;74.43
59104;BME280;51449;51.676;5.812;2022-11-20T11:36:39;100907.84;;;3.25;74.50
59104;BME280;51449;51.676;5.812;2022-11-20T11:39:03;100902.63;;;3.28;74.46
59104;BME280;51449;51.676;5.812;2022-11-20T11:41:32;100905.91;;;3.30;74.72
59104;BME280;51449;51.676;5.812;2022-11-20T11:44:12;100905.84;;;3.35;74.17
59104;BME280;51449;51.676;5.812;2022-11-20T11:47:00;100905.28;;;3.38;74.61
59104;BME280;51449;51.676;5.812;2022-11-20T11:49:23;100900.91;;;3.42;74.67
59104;BME280;51449;51.676;5.812;2022-11-20T11:54:27;100900.28;;;3.51;74.96
59104;BME280;51449;51.676;5.812;2022-11-20T11:56:59;100894.28;;;3.54;74.75
59104;BME280;51449;51.676;5.812;2022-11-20T12:00:05;100899.69;;;3.59;74.99
59104;BME280;51449;51.676;5.812;2022-11-20T12:05:26;100891.22;;;3.60;74.85
59104;BME280;51449;51.676;5.812;2022-11-20T12:08:00;100883.34;;;3.59;74.61
59104;BME280;51449;51.676;5.812;2022-11-20T12:16:29;100868.34;;;3.61;75.72
59104;BME280;51449;51.676;5.812;2022-11-20T12:19:40;100853.34;;;3.64;75.23
59104;BME280;51449;51.676;5.812;2022-11-20T12:25:54;100831.47;;;3.69;75.42
59104;BME280;51449;51.676;5.812;2022-11-20T12:37:28;100821.00;;;3.81;75.96
59104;BME280;51449;51.676;5.812;2022-11-20T12:39:34;100809.53;;;3.84;76.14
59104;BME280;51449;51.676;5.812;2022-11-20T12:42:23;100794.28;;;3.83;76.67
59104;BME280;51449;51.676;5.812;2022-11-20T12:52:13;100786.38;;;3.82;77.30
59104;BME280;51449;51.676;5.812;2022-11-20T12:54:59;100786.63;;;3.85;77.12
59104;BME280;51449;51.676;5.812;2022-11-20T13:00:21;100756.34;;;3.87;77.04
59104;BME280;51449;51.676;5.812;2022-11-20T13:02:58;100763.66;;;3.92;77.13
59104;BME280;51449;51.676;5.812;2022-11-20T13:08:57;100753.56;;;3.92;77.40
59104;BME280;51449;51.676;5.812;2022-11-20T13:12:40;100749.97;;;3.97;77.58
59104;BME280;51449;51.676;5.812;2022-11-20T13:15:23;100736.06;;;3.98;77.60
59104;BME280;51449;51.676;5.812;2022-11-20T13:17:59;100740.38;;;3.99;78.20
59104;BME280;51449;51.676;5.812;2022-11-20T13:23:28;100723.97;;;4.04;78.48
59104;BME280;51449;51.676;5.812;2022-11-20T13:26:17;100718.44;;;4.10;78.47
59104;BME280;51449;51.676;5.812;2022-11-20T13:28:42;100722.53;;;4.12;78.60
59104;BME280;51449;51.676;5.812;2022-11-20T13:31:30;100712.13;;;4.14;78.71
59104;BME280;51449;51.676;5.812;2022-11-20T13:33:56;100700.66;;;4.17;78.62
59104;BME280;51449;51.676;5.812;2022-11-20T13:36:33;100689.94;;;4.21;79.30
59104;BME280;51449;51.676;5.812;2022-11-20T13:39:27;100681.50;;;4.22;79.17
59104;BME280;51449;51.676;5.812;2022-11-20T13:42:02;100667.53;;;4.24;78.95
59104;BME280;51449;51.676;5.812;2022-11-20T13:44:54;100666.13;;;4.26;79.30
59104;BME280;51449;51.676;5.812;2022-11-20T13:47:27;100671.03;;;4.29;79.14
59104;BME280;51449;51.676;5.812;2022-11-20T13:49:54;100654.94;;;4.28;79.71
59104;BME280;51449;51.676;5.812;2022-11-20T13:52:27;100665.03;;;4.27;79.69
59104;BME280;51449;51.676;5.812;2022-11-20T13:55:31;100657.38;;;4.29;79.82
59104;BME280;51449;51.676;5.812;2022-11-20T14:00:52;100633.66;;;4.30;79.84
59104;BME280;51449;51.676;5.812;2022-11-20T14:03:24;100634.16;;;4.32;79.68
59104;BME280;51449;51.676;5.812;2022-11-20T14:06:31;100632.75;;;4.35;80.20
59104;BME280;51449;51.676;5.812;2022-11-20T14:08:56;100634.38;;;4.36;79.50
59104;BME280;51449;51.676;5.812;2022-11-20T14:11:22;100625.91;;;4.37;80.03
59104;BME280;51449;51.676;5.812;2022-11-20T14:14:02;100619.31;;;4.38;79.89
59104;BME280;51449;51.676;5.812;2022-11-20T14:16:28;100606.00;;;4.37;80.50
59104;BME280;51449;51.676;5.812;2022-11-20T14:18:53;100603.28;;;4.37;80.37
59104;BME280;51449;51.676;5.812;2022-11-20T14:21:29;100595.28;;;4.40;80.21
59104;BME280;51449;51.676;5.812;2022-11-20T14:26:26;100597.72;;;4.42;80.31
59104;BME280;51449;51.676;5.812;2022-11-20T14:28:50;100598.03;;;4.40;80.71
59104;BME280;51449;51.676;5.812;2022-11-20T14:31:25;100591.16;;;4.43;80.49
59104;BME280;51449;51.676;5.812;2022-11-20T14:33:50;100590.06;;;4.44;80.70
59104;BME280;51449;51.676;5.812;2022-11-20T14:36:19;100578.03;;;4.45;80.75
59104;BME280;51449;51.676;5.812;2022-11-20T14:38:46;100579.34;;;4.47;81.14
59104;BME280;51449;51.676;5.812;2022-11-20T14:41:17;100580.97;;;4.48;80.97
59104;BME280;51449;51.676;5.812;2022-11-20T14:43:45;100579.88;;;4.49;81.18
59104;BME280;51449;51.676;5.812;2022-11-20T14:46:09;100578.47;;;4.52;81.37
59104;BME280;51449;51.676;5.812;2022-11-20T14:48:40;100565.34;;;4.54;80.97
59104;BME280;51449;51.676;5.812;2022-11-20T14:51:11;100566.94;;;4.55;80.96
59104;BME280;51449;51.676;5.812;2022-11-20T14:54:18;100553.00;;;4.57;81.54
59104;BME280;51449;51.676;5.812;2022-11-20T14:57:01;100558.97;;;4.59;81.02
59104;BME280;51449;51.676;5.812;2022-11-20T14:59:29;100555.13;;;4.60;81.18
59104;BME280;51449;51.676;5.812;2022-11-20T15:02:16;100549.06;;;4.63;81.16
59104;BME280;51449;51.676;5.812;2022-11-20T15:04:48;100540.59;;;4.64;81.12
59104;BME280;51449;51.676;5.812;2022-11-20T15:07:25;100537.56;;;4.66;80.98
59104;BME280;51449;51.676;5.812;2022-11-20T15:10:08;100536.44;;;4.67;81.09
59104;BME280;51449;51.676;5.812;2022-11-20T15:12:32;100530.19;;;4.66;81.12
59104;BME280;51449;51.676;5.812;2022-11-20T15:14:57;100536.16;;;4.68;80.93
59104;BME280;51449;51.676;5.812;2022-11-20T15:17:20;100533.09;;;4.70;80.73
59104;BME280;51449;51.676;5.812;2022-11-20T15:19:42;100518.66;;;4.69;81.16
59104;BME280;51449;51.676;5.812;2022-11-20T15:22:07;100523.84;;;4.71;81.22
59104;BME280;51449;51.676;5.812;2022-11-20T15:24:37;100515.31;;;4.72;81.03
59104;BME280;51449;51.676;5.812;2022-11-20T15:26:59;100514.53;;;4.72;81.18
59104;BME280;51449;51.676;5.812;2022-11-20T15:29:23;100515.94;;;4.69;80.94
59104;BME280;51449;51.676;5.812;2022-11-20T15:31:45;100515.94;;;4.69;81.25
59104;BME280;51449;51.676;5.812;2022-11-20T15:34:11;100512.09;;;4.70;81.43
59104;BME280;51449;51.676;5.812;2022-11-20T15:36:34;100514.81;;;4.70;80.96
59104;BME280;51449;51.676;5.812;2022-11-20T15:38:56;100504.41;;;4.72;81.32
59104;BME280;51449;51.676;5.812;2022-11-20T15:41:17;100494.00;;;4.75;81.24
59104;BME280;51449;51.676;5.812;2022-11-20T15:43:39;100485.00;;;4.74;81.19
59104;BME280;51449;51.676;5.812;2022-11-20T15:46:06;100474.91;;;4.75;81.35
59104;BME280;51449;51.676;5.812;2022-11-20T15:48:38;100463.97;;;4.75;81.84
59104;BME280;51449;51.676;5.812;2022-11-20T15:51:19;100439.41;;;4.75;81.66
59104;BME280;51449;51.676;5.812;2022-11-20T15:53:50;100439.94;;;4.77;81.73
59104;BME280;51449;51.676;5.812;2022-11-20T15:56:13;100425.16;;;4.78;82.15
59104;BME280;51449;51.676;5.812;2022-11-20T15:58:35;100427.88;;;4.78;82.13
59104;BME280;51449;51.676;5.812;2022-11-20T16:00:57;100424.56;;;4.81;82.66
59104;BME280;51449;51.676;5.812;2022-11-20T16:03:19;100423.16;;;4.83;82.25
59104;BME280;51449;51.676;5.812;2022-11-20T16:05:41;100410.00;;;4.85;82.04
59104;BME280;51449;51.676;5.812;2022-11-20T16:08:04;100404.56;;;4.85;82.53